Reklama

Seznam meteostanic a jejich METAR

Vyhledat místa podle abecedy:
A B C D E F G H I J K L M N O P Q R S T U V W X Y Z

Filtrovat:

ID stanice:
a/nebo
Název místa (fulltext):
 
Místo (ID)Naposledy načteno 
Červená - Opava (Cervena/uL) 05.12.2019 08:00 UTC Zobrazit data
Místo: Červená - Opava
Teplota: -4 °C (pocitová: -18.4 °C)
Vítr: 12 m/s z(e) 210°
Počasí: sněží
Dohlednost: 1100 m
Zákl. oblačnosti: 8/8 60 m
Vlhkost: 93%
České Budějovice (C.Budej/po) 05.12.2019 23:00 UTC Zobrazit data
Místo: České Budějovice
Teplota: -2 °C (pocitová: -8.5 °C)
Vítr: 2 m/s z(e) 150°
Počasí: zataženo
Dohlednost: 5 km
Zákl. oblačnosti: 8/8 120 m
Vlhkost: 93%
Cheb (Cheb) 05.12.2019 23:00 UTC Zobrazit data
Místo: Cheb
Teplota: -1 °C (pocitová: -9.8 °C)
Vítr: 4 m/s z(e) 200°
Počasí: zataženo
Dohlednost: 2500 m
Zákl. oblačnosti: 8/8 90 m
Vlhkost: 93%
Chotusice - Čáslav (Caslav) 05.12.2019 23:00 UTC Zobrazit data
Místo: Chotusice - Čáslav
Teplota: 0 °C (pocitová: -8.4 °C)
Vítr: 4 m/s z(e) 150°
Počasí: zataženo
Dohlednost: 10 km
Zákl. oblačnosti: 8/8 420 m
Vlhkost: 80%
Churáňov (Churanov) 05.12.2019 23:00 UTC Zobrazit data
Místo: Churáňov
Teplota: 2 °C (pocitová: -7.5 °C)
Vítr: 7 m/s z(e) 230°
Počasí:
Dohlednost: 35 km
Zákl. oblačnosti: N/A
Vlhkost: 35%
Cairo (HECA) 06.12.2019 00:00 UTC Zobrazit METAR
HECA 060000Z 33007KT 4000 HZ NSC 18/14 Q1020 NOSIG
Canberra (YSCB) 05.12.2019 07:00 UTC Zobrazit METAR
YSCB 050700Z AUTO 30015KT 9999 // SCT100 26/M02 Q1006 FM0705 29020G30KT CAVOK FM0700 MOD/SEV TURB BLW 5000FT TL0800 FM0800 MOD TURB BLW 5000FT
Caracas (SVMP) Zatím nenačteno  
Cayenne (SOCA) 05.12.2019 22:00 UTC Zobrazit METAR
SOCA 052200Z AUTO 06005KT 9999 -RA NSC 27/24 Q1011 TEMPO 3000 SHRA SCT018TCU
Charlotte Amalie (TIST) 05.12.2019 23:53 UTC Zobrazit METAR
TIST 052353Z 07006KT 10SM SCT030 28/23 A3002 RMK AO2 SLP167 T02780233 10300 20278 53018
Chisinau (LUKK) 06.12.2019 00:00 UTC Zobrazit METAR
LUKK 060000Z 20008KT CAVOK M02/M04 Q1025 R08/CLRD// NOSIG
Colombo (VCBI) 05.12.2019 23:10 UTC Zobrazit METAR
VCBI 052310Z 05004KT 7000 FEW010 SCT016 24/24 Q1011 NOSIG
Conakry (GUCY) 05.12.2019 17:00 UTC Zobrazit METAR
GUCY 051700Z 22010KT 9999 FEW015 30/26 Q1008 NOSIG
Constanta (LRCK) 06.12.2019 00:00 UTC Zobrazit METAR
LRCK 060000Z 23009KT CAVOK M01/M02 Q1028 NOSIG
Constantine (DABC) 06.12.2019 00:00 UTC Zobrazit METAR
DABC 060000Z VRB02KT CAVOK 05/03 Q1023
Copenhagen (EKCH) 05.12.2019 23:50 UTC Zobrazit METAR
EKCH 052350Z 23021KT 9999 -RA BKN016 06/04 Q1003 TEMPO 23022G35KT BKN012
Cork (EICK) 06.12.2019 00:00 UTC Zobrazit METAR
EICK 060000Z 23015KT 9999 -DZ BKN003 11/11 Q1006 TEMPO 2000 BKN002
Cotonou (DBBB) 05.12.2019 23:00 UTC Zobrazit METAR
DBBB 052300Z 22008KT 9999 SCT012 28/26 Q1010 NOSIG
Curacao Island (TNCC) 06.12.2019 00:00 UTC Zobrazit METAR
TNCC 060000Z AUTO 10013KT 9999 // FEW018 28/23 Q1012
Reklama

Počasí na Váš email

Emaily jsou bez reklamy a bez spamu



Odhlásit newsletter

Reklama


Lunární kalendář

  • 12.12.
  • 19.12.
  • 26.12.
  • 03.01.



Reklama


Reklama
Povinné ručení
Reklama



Reklama